Lakewood test Advisories (N12)
Lakewood, NJ
Field Elevation: 43
Lat: 40°04.01N  Long: 74°10.40W
CTAF/Unicom Freq: 122.8000
   
     For Weather-by-Phone, call 732-363-6471
Weather Advisories
2021-01-22   17:11 Z
Altimeter 29.75" Hg
Wind 270° @ 10 KT
Gusts 14 KT
Visibility 10 SM
Ceiling BKN068
Temperature 7° C (45° F)
Dewpoint -9° C (16° F)
Relative Humidity 31%
Density Altitude --
Condensation Altitude 8,100 feet
Wind Chill: 4° C (39° F)
Wind and Runways
Indicated Runway = 24
Headwind = 9 kt
Crosswind = 5 kt
History
 
 
 
More Info
All DigiWx sites map
NOAA Forecast
 
Airport IQ 5010
(4N1) Greenwood Lake, NJ
(N40) Sky Manor, NJ
 
about DigiWx
 
FAA Disclaimer: The data displayed is for advisory purposes only and is not to be used for flight planning or operations. For official data, please call 732-363-6471 to hear the current automated AWOS voice message.
  METAR N12 221711Z AUTO 27010G14KT 10 SM BKN068 07/M09 A2975